createdAt,value
2022-12-13T00:02:42.264Z,85.31
2022-12-13T00:07:42.154Z,85.11
2022-12-13T00:12:42.091Z,85.36
2022-12-13T00:17:42.006Z,85.78
2022-12-13T00:22:41.988Z,86.20
2022-12-13T00:27:41.946Z,86.03
2022-12-13T00:32:41.898Z,85.82
2022-12-13T00:37:41.830Z,86.55
2022-12-13T00:42:41.757Z,86.55
2022-12-13T00:47:41.695Z,87.19
2022-12-13T00:52:41.695Z,86.66
2022-12-13T00:57:41.690Z,86.28
2022-12-13T01:02:41.559Z,86.59
2022-12-13T01:07:41.515Z,86.28
2022-12-13T01:12:41.438Z,86.28
2022-12-13T01:17:41.396Z,87.02
2022-12-13T01:22:41.355Z,86.17
2022-12-13T01:27:41.298Z,86.38
2022-12-13T01:32:41.229Z,86.80
2022-12-13T01:37:41.213Z,86.38
2022-12-13T01:42:41.136Z,86.32
2022-12-13T01:47:41.115Z,86.32
2022-12-13T01:52:41.019Z,86.00
2022-12-13T01:57:45.415Z,86.04
2022-12-13T02:02:41.963Z,85.79
2022-12-13T02:07:40.982Z,86.15
2022-12-13T02:12:40.881Z,86.53
2022-12-13T02:17:44.785Z,85.89
2022-12-13T02:22:40.879Z,85.72
2022-12-13T02:27:42.998Z,85.93
2022-12-13T02:32:40.641Z,86.04
2022-12-13T03:01:28.766Z,86.40
2022-12-13T03:22:06.226Z,85.86
2022-12-13T03:29:39.429Z,86.01
2022-12-13T03:41:39.796Z,86.01
2022-12-13T03:46:39.668Z,86.33
2022-12-13T03:51:41.682Z,85.91
2022-12-13T03:56:39.579Z,85.38
2022-12-13T04:01:40.690Z,85.59
2022-12-13T04:06:41.450Z,85.69
2022-12-13T04:11:43.422Z,85.16
2022-12-13T04:16:41.311Z,85.38
2022-12-13T04:21:39.070Z,85.38
2022-12-13T04:26:39.037Z,85.27
2022-12-13T04:31:38.991Z,84.99
2022-12-13T04:36:38.916Z,85.10
2022-12-13T04:41:38.871Z,85.10
2022-12-13T04:46:38.905Z,84.78
2022-12-13T04:51:38.736Z,85.10
2022-12-13T04:56:38.678Z,85.31
2022-12-13T05:01:38.613Z,84.99
2022-12-13T05:06:38.531Z,85.10
2022-12-13T05:11:38.541Z,85.52
2022-12-13T05:16:39.692Z,85.21
2022-12-13T05:21:38.432Z,84.89
2022-12-13T05:26:38.506Z,85.14
2022-12-13T05:31:38.581Z,85.52
2022-12-13T05:36:38.273Z,84.99
2022-12-13T05:41:38.301Z,84.78
2022-12-13T05:46:41.488Z,84.82
2022-12-13T05:51:38.150Z,84.50
2022-12-13T05:56:38.095Z,84.61
2022-12-13T06:01:38.092Z,84.71
2022-12-13T06:06:39.058Z,85.14
2022-12-13T06:11:43.485Z,85.31
2022-12-13T06:16:38.927Z,84.92
2022-12-13T06:21:41.199Z,84.50
2022-12-13T06:26:38.945Z,84.82
2022-12-13T06:31:37.787Z,84.61
2022-12-13T06:36:38.733Z,84.71
2022-12-13T06:41:37.648Z,84.61
2022-12-13T06:46:40.984Z,85.46
2022-12-13T06:51:39.636Z,85.52
2022-12-13T06:56:38.591Z,84.99
2022-12-13T07:01:38.034Z,84.50
2022-12-13T07:06:37.392Z,84.71
2022-12-13T07:11:37.288Z,85.03
2022-12-13T07:16:37.234Z,84.61
2022-12-13T07:21:37.130Z,84.33
2022-12-13T07:26:37.124Z,84.64
2022-12-13T07:31:37.061Z,85.07
2022-12-13T07:36:37.114Z,84.86
2022-12-13T07:41:37.005Z,85.35
2022-12-13T07:46:37.009Z,84.92
2022-12-13T07:51:37.043Z,85.88
2022-12-13T07:56:37.841Z,84.92
2022-12-13T08:01:36.862Z,85.03
2022-12-13T08:06:36.723Z,84.71
2022-12-13T08:11:36.662Z,84.50
2022-12-13T08:16:36.628Z,84.50
2022-12-13T08:26:37.546Z,84.19
2022-12-13T08:31:36.550Z,84.50
2022-12-13T08:38:57.224Z,84.14
2022-12-13T08:43:57.227Z,84.36
2022-12-13T08:48:57.171Z,84.36
2022-12-13T08:54:10.934Z,84.84
2022-12-13T08:58:58.252Z,84.84
2022-12-13T09:03:58.154Z,85.06
2022-12-13T09:08:57.098Z,85.02
2022-12-13T09:14:01.487Z,85.13
2022-12-13T09:18:56.870Z,85.41
2022-12-13T09:23:56.776Z,84.88
2022-12-13T09:29:11.485Z,84.98
2022-12-13T09:39:32.493Z,85.11
2022-12-13T09:44:43.599Z,85.18
2022-12-13T09:49:34.889Z,84.97
2022-12-13T09:54:32.470Z,84.55
2022-12-13T09:59:32.300Z,85.74
2022-12-13T10:04:32.229Z,85.60
2022-12-13T10:09:32.225Z,85.31
2022-12-13T10:14:32.153Z,84.64
2022-12-13T10:19:32.084Z,84.18
2022-12-13T10:24:36.868Z,84.08
2022-12-13T10:29:33.086Z,83.23
2022-12-13T10:34:31.972Z,82.98
2022-12-13T10:39:31.879Z,82.74
2022-12-13T10:44:31.825Z,82.39
2022-12-13T10:49:31.761Z,81.76
2022-12-13T10:54:38.509Z,82.49
2022-12-13T10:59:32.670Z,80.88
2022-12-13T11:04:31.619Z,79.69
2022-12-13T11:09:38.435Z,79.44
2022-12-13T11:14:32.723Z,77.62
2022-12-13T11:19:31.493Z,76.96
2022-12-13T11:24:31.390Z,78.15
2022-12-13T11:29:31.316Z,76.47
2022-12-13T11:34:31.369Z,76.37
2022-12-13T11:39:31.242Z,75.26
2022-12-13T11:44:31.359Z,76.72
2022-12-13T11:49:31.308Z,74.76
2022-12-13T11:54:32.227Z,77.03
2022-12-13T11:59:31.367Z,78.04
2022-12-13T12:04:31.979Z,75.50
2022-12-13T12:09:30.880Z,76.61
2022-12-13T12:14:30.975Z,76.16
2022-12-13T12:19:30.926Z,75.22
2022-12-13T12:24:30.741Z,76.79
2022-12-13T12:29:30.774Z,74.63
2022-12-13T12:34:30.624Z,75.26
2022-12-13T12:39:30.600Z,73.38
2022-12-13T12:44:31.240Z,69.82
2022-12-13T12:49:30.554Z,70.94
2022-12-13T12:54:32.713Z,68.13
2022-12-13T12:59:30.573Z,67.60
2022-12-13T13:04:30.310Z,68.51
2022-12-13T13:09:30.227Z,68.72
2022-12-13T13:14:30.189Z,66.56
2022-12-13T13:19:31.287Z,69.45
2022-12-13T13:24:30.105Z,67.78
2022-12-13T13:29:30.088Z,67.65
2022-12-13T13:34:29.984Z,67.88
2022-12-13T13:39:29.946Z,68.27
2022-12-13T13:44:30.032Z,68.59
2022-12-13T13:49:31.561Z,68.90
2022-12-13T13:54:29.867Z,67.85
2022-12-13T13:59:29.740Z,71.53
2022-12-13T14:04:29.854Z,71.01
2022-12-13T14:09:29.785Z,68.72
2022-12-13T14:14:29.744Z,70.81
2022-12-13T14:19:29.689Z,71.22
2022-12-13T14:24:29.477Z,72.19
2022-12-13T14:29:29.402Z,73.27
2022-12-13T14:34:29.352Z,74.32
2022-12-13T14:49:16.794Z,74.56
2022-12-13T15:05:05.185Z,76.09
2022-12-13T15:10:11.517Z,77.28
2022-12-13T15:15:05.231Z,78.22
2022-12-13T15:20:05.585Z,78.25
2022-12-13T15:25:35.637Z,79.09
2022-12-13T15:30:05.261Z,78.50
2022-12-13T15:35:06.403Z,78.70
2022-12-13T15:40:04.848Z,78.60
2022-12-13T15:45:04.887Z,79.27
2022-12-13T15:50:06.974Z,79.90
2022-12-13T15:55:09.779Z,79.47
2022-12-13T16:00:34.339Z,79.47
2022-12-13T18:11:34.686Z,81.37
2022-12-13T18:16:19.131Z,81.40
2022-12-13T18:21:18.006Z,81.61
2022-12-13T18:26:17.987Z,81.61
2022-12-13T18:31:17.927Z,82.03
2022-12-13T18:36:17.846Z,81.61
2022-12-13T18:41:17.847Z,81.86
2022-12-13T18:46:17.873Z,82.17
2022-12-13T18:51:17.667Z,82.28
2022-12-13T18:56:19.190Z,82.28
2022-12-13T19:01:17.689Z,82.49
2022-12-13T19:06:17.717Z,82.49
2022-12-13T19:11:17.472Z,82.49
2022-12-13T19:16:17.469Z,82.49
2022-12-13T19:21:17.411Z,82.70
2022-12-13T19:26:17.325Z,82.49
2022-12-13T19:31:17.293Z,82.49
2022-12-13T19:36:17.289Z,82.95
2022-12-13T19:41:17.175Z,82.95
2022-12-13T19:46:17.150Z,82.95
2022-12-13T19:51:17.068Z,83.09
2022-12-13T19:56:17.064Z,82.98
2022-12-13T20:01:16.992Z,83.20
2022-12-13T20:06:17.033Z,83.83
2022-12-13T20:11:16.839Z,84.03
2022-12-13T20:16:16.945Z,83.72
2022-12-13T20:21:16.840Z,83.83
2022-12-13T20:26:16.702Z,83.72
2022-12-13T20:31:16.791Z,83.20
2022-12-13T20:36:25.469Z,82.98
2022-12-13T20:42:27.866Z,82.74
2022-12-13T20:47:27.809Z,82.56
2022-12-13T20:52:27.758Z,82.25
2022-12-13T20:57:27.732Z,83.61
2022-12-13T21:02:27.744Z,82.63
2022-12-13T21:07:27.614Z,82.10
2022-12-13T21:12:27.676Z,82.14
2022-12-13T21:17:27.512Z,82.46
2022-12-13T21:22:40.345Z,82.56
2022-12-13T21:27:27.469Z,82.25
2022-12-13T21:32:27.371Z,82.46
2022-12-13T21:37:27.290Z,82.88
2022-12-13T21:42:27.231Z,82.78
2022-12-13T21:47:27.207Z,82.78
2022-12-13T21:52:27.164Z,82.35
2022-12-13T21:57:28.160Z,81.83
2022-12-13T22:02:27.064Z,81.73
2022-12-13T22:07:26.980Z,81.51
2022-12-13T22:12:26.945Z,81.09
2022-12-13T22:17:33.066Z,81.20
2022-12-13T22:22:27.814Z,80.43
2022-12-13T22:27:26.801Z,79.83
2022-12-13T22:32:26.712Z,79.94
2022-12-13T22:37:26.655Z,80.18
2022-12-13T22:42:27.691Z,79.97
2022-12-13T22:47:26.537Z,80.50
2022-12-13T22:52:30.462Z,80.68
2022-12-13T22:57:27.463Z,81.24
2022-12-13T23:02:26.592Z,81.62
2022-12-13T23:07:26.350Z,81.34
2022-12-13T23:12:26.379Z,82.56
2022-12-13T23:17:26.277Z,82.14
2022-12-13T23:22:26.299Z,81.13
2022-12-13T23:27:26.358Z,81.13
2022-12-13T23:32:26.091Z,82.07
2022-12-13T23:37:26.058Z,81.76
2022-12-13T23:42:26.130Z,81.76
2022-12-13T23:47:26.084Z,80.82
2022-12-13T23:52:25.983Z,80.40
2022-12-13T23:57:25.820Z,79.13
